Impacts TAF Board INFO
FOR SITUATIONAL AWARENESS. NOT TO BE USED FOR FLIGHT PLANNING PURPOSES.
IDs:

KFLL - Ft Lauderdale-Hollyw, FL, US

Issued at 0300 UTC 17 Jul 2018
Updated at 0332 UTC 17 Jul 2018
Potential Impact None Slight Moderate High
Time0253Z 17/04Z 17/05Z 17/06Z 17/07Z 17/08Z 17/09Z 17/10Z 17/11Z 17/12Z 17/13Z 17/14Z 17/15Z 17/16Z>>
Type OBS PRVL PRVL PRVL PRVL PRVL PRVL PRVL PRVL PRVL PRVL PRVL PRVL PRVL
VIS 10 >6 >6 >6 >6 >6 >6 >6 >6 >6 >6 >6 >6 >6
CIG -- -- -- -- -- -- -- -- -- -- -- -- -- --
Cover CLR SCT SCT SCT SCT SCT SCT SCT SCT SCT SCT SCT SCT SCT
FltCat VFR VFR VFR VFR VFR VFR VFR VFR VFR VFR VFR VFR VFR VFR
WX -- -- -- -- -- -- -- -- -- -- -- -- -- --
WDir 150 VRB VRB VRB VRB VRB VRB VRB VRB VRB VRB 160 160 160
WSpd 4 0 0 0 0 0 0 0 0 0 0 6 6 6
WGst -- -- -- -- -- -- -- -- -- -- -- -- -- --

Raw TAF
KFLL 170300Z 1703/1806 00000KT P6SM FEW025 SCT250
  FM171400 16006KT P6SM SCT025 SCT060
  FM171700 16010KT P6SM VCSH SCT025 BKN050
  FM172300 19004KT P6SM SCT040


Raw METAR
KFLL 170253Z 15004KT 10SM CLR 29/24 A3010 RMK AO2 SLP191 T02940244 51016
KFLL 170153Z 21003KT 10SM FEW030 FEW070 29/24 A3009 RMK AO2 SLP188 T02940239
KFLL 170053Z 00000KT 10SM FEW035 FEW180 SCT250 29/24 A3007 RMK AO2 SLP182 OCNL LTGICCG DSNT W CB DSNT W T02890239

METAR Board
Radar Display
Forecast Discussion

FOR SITUATIONAL AWARENESS. NOT TO BE USED FOR FLIGHT PLANNING PURPOSES.